Time;durP1;ratioP1;P1;durP2;ratioP2;P2;SDS_P1;SDS_P2;PMS_P1;PMS_P2;Temp;Humidity;BMP_temperature;BMP_pressure;BME280_temperature;BME280_humidity;BME280_pressure;Samples;Min_cycle;Max_cycle;Signal;HPM_P1;HPM_P2
2023/04/15 00:04:14;;;;;;;1.67;1.20;;;15.80;66.10;;;;;;10287673;28;20030;-57
2023/04/15 00:09:14;;;;;;;1.20;0.77;;;15.80;66.10;;;;;;10288495;28;20077;-58
2023/04/15 00:14:15;;;;;;;1.95;0.90;;;15.80;66.10;;;;;;10288240;28;20031;-57
2023/04/15 00:19:16;;;;;;;2.50;1.00;;;15.80;66.00;;;;;;10288033;28;20102;-57
2023/04/15 00:24:16;;;;;;;1.92;1.00;;;15.80;65.90;;;;;;10270222;28;20062;-57
2023/04/15 00:29:17;;;;;;;2.45;1.10;;;15.80;65.90;;;;;;10270366;28;20419;-57
2023/04/15 00:34:18;;;;;;;2.20;1.10;;;15.70;65.80;;;;;;10269720;28;20117;-57
2023/04/15 00:39:19;;;;;;;2.13;0.90;;;15.70;65.80;;;;;;10287587;28;20103;-57
2023/04/15 00:44:19;;;;;;;2.72;1.35;;;15.70;65.70;;;;;;10269538;28;20139;-57
2023/04/15 00:49:21;;;;;;;1.63;0.98;;;15.70;65.80;;;;;;10286836;28;20035;-57
2023/04/15 00:54:22;;;;;;;2.83;1.83;;;15.70;65.70;;;;;;10269171;28;20023;-56
2023/04/15 00:59:23;;;;;;;4.72;1.23;;;15.70;65.70;;;;;;10286337;28;20537;-56
2023/04/15 01:04:24;;;;;;;1.70;0.90;;;15.70;65.60;;;;;;10285765;28;20383;-57
2023/04/15 01:09:25;;;;;;;1.70;1.05;;;15.70;65.60;;;;;;10286073;28;20102;-57
2023/04/15 01:14:26;;;;;;;1.48;1.00;;;15.70;65.60;;;;;;10285659;28;20043;-57
2023/04/15 01:19:28;;;;;;;1.23;0.75;;;15.70;65.50;;;;;;10285361;28;20045;-57
2023/04/15 01:24:30;;;;;;;2.17;1.23;;;15.60;65.50;;;;;;10285400;28;20011;-57
2023/04/15 01:29:37;;;;;;;4.20;1.40;;;15.60;65.40;;;;;;10267927;28;20022;-57
2023/04/15 01:34:37;;;;;;;2.30;1.17;;;15.60;65.40;;;;;;10267317;28;20023;-56
2023/04/15 01:39:38;;;;;;;1.52;0.90;;;15.60;65.40;;;;;;10284584;28;20700;-57
2023/04/15 01:44:39;;;;;;;2.72;1.27;;;15.60;65.30;;;;;;10267110;28;20894;-57
2023/04/15 01:49:39;;;;;;;1.95;1.13;;;15.60;65.30;;;;;;10284373;28;20054;-57
2023/04/15 01:54:40;;;;;;;2.45;1.27;;;15.60;65.30;;;;;;10284296;28;20050;-57
2023/04/15 01:59:41;;;;;;;2.45;1.20;;;15.60;65.30;;;;;;10283994;28;20106;-57
2023/04/15 02:04:42;;;;;;;2.20;1.13;;;15.50;65.20;;;;;;10266783;28;20026;-57
2023/04/15 02:09:42;;;;;;;1.88;1.23;;;15.60;65.30;;;;;;10283576;28;20098;-57
2023/04/15 02:14:43;;;;;;;1.40;0.90;;;15.50;65.20;;;;;;10284240;28;20035;-57
2023/04/15 02:19:44;;;;;;;1.88;1.05;;;15.50;65.20;;;;;;10283702;28;20054;-57
2023/04/15 02:24:45;;;;;;;2.08;1.20;;;15.50;65.20;;;;;;10287496;28;20038;-56
2023/04/15 02:29:46;;;;;;;2.05;1.00;;;15.50;65.20;;;;;;10296693;28;20513;-57
2023/04/15 02:34:46;;;;;;;1.50;1.13;;;15.50;65.10;;;;;;10305165;28;20076;-57
2023/04/15 02:39:47;;;;;;;1.98;1.40;;;15.50;65.10;;;;;;10296615;28;20059;-57
2023/04/15 02:44:48;;;;;;;2.40;1.20;;;15.50;65.10;;;;;;10296631;28;20070;-57
2023/04/15 02:49:48;;;;;;;1.52;1.02;;;15.50;65.00;;;;;;10296519;28;20491;-57
2023/04/15 02:54:49;;;;;;;2.28;1.23;;;15.50;65.00;;;;;;10296585;28;20078;-57
2023/04/15 02:59:50;;;;;;;3.03;1.55;;;15.50;65.00;;;;;;10296321;28;20563;-57
2023/04/15 03:04:50;;;;;;;2.63;1.52;;;15.40;65.00;;;;;;10296050;28;20475;-57
2023/04/15 03:09:51;;;;;;;3.00;1.45;;;15.40;65.00;;;;;;10279126;28;20158;-57
2023/04/15 03:14:52;;;;;;;2.65;1.20;;;15.40;65.00;;;;;;10278843;28;20559;-57
2023/04/15 03:19:53;;;;;;;2.70;1.20;;;15.40;65.00;;;;;;10296256;28;20054;-56
2023/04/15 03:24:54;;;;;;;2.35;1.42;;;15.40;65.10;;;;;;10295536;28;20746;-57
2023/04/15 03:29:55;;;;;;;2.70;1.60;;;15.40;65.00;;;;;;10295691;28;20093;-57
2023/04/15 03:34:56;;;;;;;2.85;1.30;;;15.40;65.10;;;;;;10294804;28;20015;-56
2023/04/15 03:39:56;;;;;;;3.38;1.10;;;15.40;65.10;;;;;;10271380;28;20441;-57
2023/04/15 03:44:57;;;;;;;2.95;1.58;;;15.40;65.10;;;;;;10287739;28;20047;-57
2023/04/15 03:49:58;;;;;;;2.13;1.10;;;15.30;65.10;;;;;;10253192;28;20069;-57
2023/04/15 03:54:58;;;;;;;2.55;1.08;;;15.40;65.20;;;;;;10288534;28;20027;-56
2023/04/15 03:59:59;;;;;;;1.73;1.38;;;15.40;65.10;;;;;;10288172;28;20126;-56
2023/04/15 04:05:00;;;;;;;2.85;1.40;;;15.40;65.10;;;;;;10271133;28;20098;-56
2023/04/15 04:10:02;;;;;;;2.58;1.40;;;15.40;65.60;;;;;;10270778;28;20051;-56
2023/04/15 04:15:04;;;;;;;2.72;1.10;;;15.50;65.00;;;;;;10270553;28;20038;-57
2023/04/15 04:20:06;;;;;;;1.67;1.20;;;15.70;64.30;;;;;;10287652;28;20039;-57
2023/04/15 04:25:08;;;;;;;3.53;1.20;;;15.90;63.70;;;;;;10287218;28;20023;-57
2023/04/15 04:30:10;;;;;;;2.03;1.15;;;16.10;63.20;;;;;;10270016;28;20089;-57
2023/04/15 04:35:10;;;;;;;1.83;1.55;;;16.20;63.00;;;;;;10268179;28;20023;-57
2023/04/15 04:40:12;;;;;;;2.42;1.23;;;16.20;62.90;;;;;;10281225;28;20482;-56
2023/04/15 04:45:12;;;;;;;2.33;1.10;;;16.20;63.00;;;;;;10288464;28;20057;-55
2023/04/15 04:50:13;;;;;;;1.67;1.20;;;16.10;63.00;;;;;;10263125;28;20536;-57
2023/04/15 04:55:14;;;;;;;2.15;1.33;;;16.00;63.30;;;;;;10286517;28;20035;-57
2023/04/15 05:00:15;;;;;;;3.22;1.95;;;16.00;63.80;;;;;;10284792;28;20462;-57
2023/04/15 05:05:16;;;;;;;1.58;1.20;;;16.00;63.40;;;;;;10284831;28;20023;-57
2023/04/15 05:10:17;;;;;;;1.38;0.98;;;16.10;63.30;;;;;;10283572;28;20014;-57
2023/04/15 05:15:18;;;;;;;2.03;1.25;;;16.10;63.30;;;;;;10265381;28;20027;-56
2023/04/15 05:20:19;;;;;;;2.60;1.10;;;16.00;63.70;;;;;;10265504;28;20042;-57
2023/04/15 05:25:20;;;;;;;1.92;1.27;;;15.90;64.00;;;;;;10282095;28;20158;-57
2023/04/15 05:30:21;;;;;;;2.60;1.40;;;15.90;64.20;;;;;;10280846;28;20769;-57
2023/04/15 05:35:21;;;;;;;2.33;1.30;;;15.80;65.00;;;;;;10283455;28;20019;-57
2023/04/15 05:40:23;;;;;;;2.88;1.15;;;15.80;64.40;;;;;;10283047;28;20027;-57
2023/04/15 05:45:23;;;;;;;1.85;0.90;;;16.00;63.90;;;;;;10282674;28;20092;-55
2023/04/15 05:50:24;;;;;;;4.78;1.52;;;16.00;63.60;;;;;;10262721;28;20062;-56
2023/04/15 05:55:25;;;;;;;2.17;1.17;;;16.10;64.20;;;;;;10265944;28;20053;-56
2023/04/15 06:00:26;;;;;;;4.63;1.52;;;16.10;63.90;;;;;;10282217;28;20039;-58
2023/04/15 06:05:26;;;;;;;5.43;1.70;;;16.20;64.50;;;;;;10265649;28;20019;-58
2023/04/15 06:10:27;;;;;;;5.63;2.08;;;16.10;64.90;;;;;;10284004;28;20110;-57
2023/04/15 06:15:28;;;;;;;8.10;2.63;;;16.20;65.90;;;;;;10283865;28;20133;-58
2023/04/15 06:20:29;;;;;;;6.85;2.22;;;16.20;66.10;;;;;;10283295;28;20035;-58
2023/04/15 06:25:30;;;;;;;13.23;2.33;;;16.20;66.40;;;;;;10282755;28;20662;-52
2023/04/15 06:30:30;;;;;;;3.42;1.92;;;16.20;66.30;;;;;;10263716;28;20581;-56
2023/04/15 06:35:31;;;;;;;12.57;2.90;;;16.20;66.40;;;;;;10274547;28;20037;-56
2023/04/15 06:40:32;;;;;;;5.45;1.92;;;16.10;66.20;;;;;;10270560;28;20035;-54
2023/04/15 06:45:33;;;;;;;7.10;2.72;;;16.00;66.60;;;;;;10265385;28;20497;-57
2023/04/15 06:50:34;;;;;;;10.52;2.60;;;16.00;66.80;;;;;;10271408;28;20015;-57
2023/04/15 06:55:35;;;;;;;11.90;2.72;;;15.90;67.00;;;;;;10282370;28;20506;-53
2023/04/15 07:00:37;;;;;;;10.43;3.03;;;15.90;67.10;;;;;;10282476;28;20054;-55
2023/04/15 07:05:39;;;;;;;9.18;2.42;;;15.80;67.10;;;;;;10264337;28;20157;-56
2023/04/15 07:10:40;;;;;;;5.03;2.10;;;15.70;67.00;;;;;;10280381;28;20090;-55
2023/04/15 07:15:41;;;;;;;8.20;2.88;;;15.70;66.90;;;;;;10305153;28;20521;-57
2023/04/15 07:20:42;;;;;;;8.85;2.67;;;15.70;66.90;;;;;;10285161;28;20122;-55
2023/04/15 07:25:43;;;;;;;7.78;2.00;;;15.70;67.00;;;;;;10285226;28;20019;-55
2023/04/15 07:30:43;;;;;;;6.72;2.10;;;15.70;66.90;;;;;;10286983;28;20023;-57
2023/04/15 07:35:44;;;;;;;5.60;1.98;;;15.70;66.80;;;;;;10286221;28;20448;-56
2023/04/15 07:40:46;;;;;;;7.63;2.47;;;15.70;66.80;;;;;;10288359;28;20434;-56
2023/04/15 07:45:46;;;;;;;8.45;2.17;;;15.60;66.80;;;;;;10271114;28;20486;-56
2023/04/15 07:50:47;;;;;;;3.88;1.73;;;15.60;66.90;;;;;;10287336;28;20045;-57
2023/04/15 07:55:48;;;;;;;3.67;2.00;;;15.60;66.80;;;;;;10286509;28;20138;-57
2023/04/15 08:00:49;;;;;;;5.68;2.55;;;15.60;66.90;;;;;;10268340;28;20066;-56
2023/04/15 08:05:49;;;;;;;4.60;2.42;;;15.60;66.70;;;;;;10269055;28;20015;-56
2023/04/15 08:10:50;;;;;;;7.28;2.47;;;15.60;66.50;;;;;;10287143;28;20034;-55
2023/04/15 08:16:17;;;;;;;12.25;2.42;;;15.60;66.50;;;;;;10287643;28;20023;-56
2023/04/15 08:21:19;;;;;;;9.20;2.28;;;15.70;66.70;;;;;;10275100;28;20046;-56
2023/04/15 08:26:20;;;;;;;8.80;2.00;;;15.90;67.00;;;;;;10285391;28;20655;-56
2023/04/15 08:31:21;;;;;;;7.00;2.60;;;16.00;66.90;;;;;;10286389;28;20030;-54
2023/04/15 08:36:22;;;;;;;5.25;1.70;;;15.90;66.30;;;;;;10286042;28;20031;-54
2023/04/15 08:41:24;;;;;;;6.03;1.85;;;15.80;66.50;;;;;;10285604;28;20106;-51
2023/04/15 08:46:25;;;;;;;4.63;1.73;;;15.80;66.50;;;;;;10285431;28;20474;-56
2023/04/15 08:51:29;;;;;;;7.38;2.13;;;15.80;66.60;;;;;;10283858;28;20027;-57
2023/04/15 08:56:31;;;;;;;4.70;1.85;;;15.70;66.50;;;;;;10267623;28;20046;-55
2023/04/15 09:01:32;;;;;;;5.32;2.13;;;15.70;66.60;;;;;;10267008;28;20037;-56
2023/04/15 09:06:33;;;;;;;5.63;1.88;;;15.70;66.40;;;;;;10267489;28;20070;-57
2023/04/15 09:11:35;;;;;;;6.57;2.50;;;15.80;66.40;;;;;;10285306;28;20410;-54
2023/04/15 09:16:58;;;;;;;5.97;1.73;;;15.80;66.40;;;;;;10283850;28;20055;-56
2023/04/15 09:21:59;;;;;;;6.20;1.80;;;15.80;66.40;;;;;;10283754;28;20047;-57
2023/04/15 09:27:00;;;;;;;6.15;1.60;;;15.80;66.40;;;;;;10283826;28;20019;-55
2023/04/15 09:32:15;;;;;;;5.68;1.70;;;15.80;66.40;;;;;;10283124;28;20031;-56
2023/04/15 09:37:19;;;;;;;4.28;1.90;;;15.80;66.30;;;;;;10282123;28;20058;-56
2023/04/15 09:42:23;;;;;;;5.63;1.73;;;15.80;66.40;;;;;;10283033;28;20090;-55
2023/04/15 09:47:29;;;;;;;3.45;1.70;;;15.70;66.30;;;;;;10283062;28;20130;-56
2023/04/15 09:52:29;;;;;;;4.65;1.45;;;15.80;66.40;;;;;;10265568;28;20027;-55
2023/04/15 09:57:36;;;;;;;3.22;1.30;;;15.80;66.40;;;;;;10282782;28;20026;-57
2023/04/15 10:02:39;;;;;;;3.83;1.40;;;15.80;66.50;;;;;;10272621;28;20627;-57
2023/04/15 10:07:41;;;;;;;3.60;1.17;;;15.80;66.30;;;;;;10250649;28;20023;-56
2023/04/15 10:12:43;;;;;;;3.40;1.17;;;15.80;66.40;;;;;;10267053;28;20041;-57
2023/04/15 10:17:46;;;;;;;2.97;1.35;;;15.80;66.40;;;;;;10266731;28;20501;-57
2023/04/15 10:22:48;;;;;;;3.92;1.33;;;15.80;66.40;;;;;;10265852;28;20023;-56
2023/04/15 10:27:51;;;;;;;6.90;1.83;;;15.80;66.40;;;;;;10265841;28;20598;-57
2023/04/15 10:32:53;;;;;;;4.18;1.38;;;15.80;66.40;;;;;;10266370;28;20042;-57
2023/04/15 10:37:53;;;;;;;3.45;1.17;;;15.90;66.40;;;;;;10266117;28;20019;-54
2023/04/15 10:42:55;;;;;;;3.45;1.40;;;15.90;66.40;;;;;;10283347;28;20118;-57
2023/04/15 10:48:00;;;;;;;3.03;1.13;;;15.90;66.30;;;;;;10271721;28;20050;-57
2023/04/15 10:53:04;;;;;;;2.78;0.90;;;15.90;66.40;;;;;;10274012;28;20374;-56
2023/04/15 10:58:05;;;;;;;1.85;1.05;;;15.90;66.40;;;;;;10289898;28;20145;-57
2023/04/15 11:03:08;;;;;;;8.95;2.50;;;16.00;70.60;;;;;;10281330;28;20112;-56
2023/04/15 11:08:12;;;;;;;20.48;4.30;;;16.20;70.10;;;;;;10290266;28;20034;-56
2023/04/15 11:13:25;;;;;;;11.63;2.78;;;16.30;69.10;;;;;;10250743;28;20493;-58
2023/04/15 11:18:29;;;;;;;12.48;3.53;;;16.30;68.60;;;;;;10273408;28;20023;-58
2023/04/15 11:23:42;;;;;;;21.70;3.78;;;16.30;67.50;;;;;;10281444;28;20041;-58
2023/04/15 11:28:44;;;;;;;19.02;3.10;;;16.30;68.30;;;;;;10270837;28;20038;-59
2023/04/15 11:33:55;;;;;;;20.08;3.22;;;16.60;68.40;;;;;;10276451;28;20019;-55
2023/04/15 11:38:58;;;;;;;25.05;3.00;;;16.70;68.60;;;;;;10289588;28;20019;-58
2023/04/15 11:43:59;;;;;;;17.05;3.20;;;16.80;68.60;;;;;;10289012;28;20057;-58
2023/04/15 11:49:00;;;;;;;19.38;3.90;;;16.90;68.50;;;;;;10287760;28;20570;-57
2023/04/15 11:54:01;;;;;;;18.95;4.35;;;17.00;68.90;;;;;;10289158;28;20027;-59
2023/04/15 11:59:03;;;;;;;24.13;4.68;;;17.10;69.30;;;;;;10270397;28;20606;-58
2023/04/15 12:04:12;;;;;;;13.80;3.67;;;17.00;69.00;;;;;;10288260;28;20423;-53
2023/04/15 12:09:14;;;;;;;13.07;2.78;;;16.80;68.40;;;;;;10287989;28;20078;-56
2023/04/15 12:14:24;;;;;;;11.85;3.35;;;16.60;68.60;;;;;;10288197;28;20019;-56
2023/04/15 12:19:27;;;;;;;13.80;2.78;;;16.50;68.60;;;;;;10287660;28;20054;-56
2023/04/15 12:24:32;;;;;;;13.77;2.83;;;16.50;68.60;;;;;;10286448;28;20027;-58
2023/04/15 12:29:35;;;;;;;11.20;3.35;;;16.40;69.00;;;;;;10269493;28;20726;-57
2023/04/15 12:34:43;;;;;;;8.63;2.42;;;16.40;68.30;;;;;;10286519;28;20076;-56
2023/04/15 12:39:47;;;;;;;7.80;2.50;;;16.40;68.00;;;;;;10286797;28;20023;-57
2023/04/15 12:44:48;;;;;;;9.27;3.28;;;16.40;68.10;;;;;;10268705;28;20545;-59
2023/04/15 12:49:49;;;;;;;11.45;3.63;;;16.40;67.30;;;;;;10269131;28;20110;-58
2023/04/15 12:54:50;;;;;;;10.07;3.13;;;16.40;67.70;;;;;;10286204;28;20120;-47
2023/04/15 12:59:50;;;;;;;9.05;2.17;;;16.30;67.50;;;;;;10285407;28;20131;-54
2023/04/15 13:04:51;;;;;;;11.10;3.05;;;16.40;67.20;;;;;;10285108;28;20066;-53
2023/04/15 13:09:51;;;;;;;9.43;3.03;;;16.30;66.70;;;;;;10284915;28;20461;-54
2023/04/15 13:14:52;;;;;;;12.30;2.75;;;16.40;66.50;;;;;;10284467;28;20102;-59
2023/04/15 13:19:53;;;;;;;9.32;2.22;;;16.40;66.40;;;;;;10284828;28;20027;-57
2023/04/15 13:24:53;;;;;;;11.57;2.28;;;16.40;66.20;;;;;;10285091;28;20069;-58
2023/04/15 13:29:54;;;;;;;13.95;2.13;;;16.40;65.70;;;;;;10285034;28;20086;-52
2023/04/15 13:34:55;;;;;;;12.60;2.55;;;16.40;66.00;;;;;;10293540;28;20054;-57
2023/04/15 13:39:56;;;;;;;9.25;2.10;;;16.30;66.10;;;;;;10287143;28;20122;-58
2023/04/15 13:44:56;;;;;;;16.05;4.13;;;16.40;65.70;;;;;;10266990;28;20055;-52
2023/04/15 13:49:57;;;;;;;6.63;2.58;;;16.30;65.70;;;;;;10284155;28;20058;-58
2023/04/15 13:54:58;;;;;;;20.25;3.15;;;16.30;65.70;;;;;;10266129;28;20102;-57
2023/04/15 13:59:58;;;;;;;11.65;2.28;;;16.30;65.80;;;;;;10265763;28;20047;-56
2023/04/15 14:04:59;;;;;;;14.98;2.90;;;16.20;65.30;;;;;;10283804;28;20696;-56
2023/04/15 14:10:00;;;;;;;12.75;3.00;;;16.30;65.50;;;;;;10283918;28;20031;-58
2023/04/15 14:15:01;;;;;;;16.00;2.17;;;16.20;65.50;;;;;;10286301;28;20098;-56
2023/04/15 14:20:02;;;;;;;7.15;2.00;;;16.20;65.20;;;;;;10282388;28;20102;-58
2023/04/15 14:25:03;;;;;;;11.07;2.67;;;16.20;65.10;;;;;;10283362;28;20054;-59
2023/04/15 14:30:05;;;;;;;9.07;1.90;;;16.20;65.20;;;;;;10283563;28;20026;-58
2023/04/15 14:35:06;;;;;;;5.90;2.40;;;16.20;65.10;;;;;;10289541;28;20019;-58
2023/04/15 14:40:08;;;;;;;13.18;2.03;;;16.10;65.20;;;;;;10283447;28;20015;-53
2023/04/15 14:45:09;;;;;;;9.52;2.25;;;16.10;65.20;;;;;;10283147;28;20054;-58
2023/04/15 14:50:10;;;;;;;6.40;1.85;;;16.10;65.20;;;;;;10282162;28;20502;-58
2023/04/15 14:55:11;;;;;;;7.00;1.63;;;16.10;65.20;;;;;;10282180;28;20045;-50
2023/04/15 15:00:12;;;;;;;6.28;1.73;;;16.00;65.10;;;;;;10282772;28;20019;-56
2023/04/15 15:05:13;;;;;;;8.10;2.13;;;16.00;65.20;;;;;;10282742;28;20073;-56
2023/04/15 15:10:14;;;;;;;8.02;3.28;;;16.10;65.40;;;;;;10265511;28;20458;-54
2023/04/15 15:15:15;;;;;;;6.10;1.77;;;16.10;65.50;;;;;;10281643;28;20037;-57
2023/04/15 15:20:16;;;;;;;6.78;1.60;;;16.10;65.40;;;;;;10279386;28;20353;-55
2023/04/15 15:25:17;;;;;;;8.40;2.25;;;16.10;65.80;;;;;;10284545;28;20026;-55
2023/04/15 15:30:17;;;;;;;12.45;2.20;;;16.20;68.90;;;;;;10280374;28;20030;-51
2023/04/15 15:35:18;;;;;;;14.88;3.03;;;16.10;67.00;;;;;;10287347;28;20019;-53
2023/04/15 15:40:19;;;;;;;11.60;3.00;;;16.10;66.30;;;;;;10288947;28;20141;-54
2023/04/15 15:45:20;;;;;;;12.10;3.60;;;16.00;66.20;;;;;;10288592;28;20494;-53
2023/04/15 15:50:20;;;;;;;12.38;3.53;;;16.00;66.30;;;;;;10269462;28;20040;-53
2023/04/15 15:55:22;;;;;;;32.08;4.72;;;16.00;66.40;;;;;;10288293;28;20102;-51
2023/04/15 16:00:23;;;;;;;23.52;8.25;;;16.00;66.20;;;;;;10287757;28;20039;-55
2023/04/15 16:05:23;;;;;;;20.27;5.85;;;16.30;69.10;;;;;;10287958;28;20359;-56
2023/04/15 16:10:24;;;;;;;18.55;5.60;;;16.50;67.50;;;;;;10287829;28;20042;-58
2023/04/15 16:15:25;;;;;;;20.55;5.47;;;16.60;67.70;;;;;;10287486;28;20026;-58
2023/04/15 16:20:27;;;;;;;24.55;5.55;;;16.60;67.70;;;;;;10270033;28;20475;-58
2023/04/15 16:25:27;;;;;;;17.88;5.22;;;16.60;68.30;;;;;;10270251;28;20478;-58
2023/04/15 16:30:28;;;;;;;21.05;4.85;;;16.60;68.40;;;;;;10287006;28;20030;-57
2023/04/15 16:35:29;;;;;;;36.22;6.60;;;16.50;68.80;;;;;;10286698;28;20616;-62
2023/04/15 16:40:30;;;;;;;42.58;7.28;;;16.40;68.30;;;;;;10273679;28;20034;-52
2023/04/15 16:45:31;;;;;;;31.25;6.55;;;16.40;68.20;;;;;;10285565;28;20189;-58
2023/04/15 16:50:31;;;;;;;25.83;4.85;;;16.60;68.20;;;;;;10285930;28;20033;-55
2023/04/15 16:55:32;;;;;;;31.63;5.53;;;16.50;68.20;;;;;;10267980;28;20030;-57
2023/04/15 17:00:35;;;;;;;30.35;6.93;;;16.40;68.50;;;;;;10285554;28;20039;-57
2023/04/15 17:05:36;;;;;;;23.70;4.22;;;16.40;68.90;;;;;;10268010;28;20022;-57
2023/04/15 17:10:37;;;;;;;33.97;5.28;;;16.30;69.10;;;;;;10285240;28;20077;-55
2023/04/15 17:15:39;;;;;;;26.50;5.07;;;16.30;69.80;;;;;;10285163;28;20057;-59
2023/04/15 17:20:40;;;;;;;28.52;5.95;;;16.30;70.50;;;;;;10284527;28;20110;-54
2023/04/15 17:25:40;;;;;;;23.00;5.85;;;16.30;70.20;;;;;;10267147;28;20019;-56
2023/04/15 17:30:41;;;;;;;16.92;4.03;;;16.20;70.30;;;;;;10284414;28;20098;-54
2023/04/15 17:35:42;;;;;;;12.93;4.65;;;16.20;70.40;;;;;;10282994;28;20026;-55
2023/04/15 17:40:42;;;;;;;15.25;5.30;;;16.10;70.30;;;;;;10284153;28;20038;-57
2023/04/15 17:45:45;;;;;;;11.68;3.85;;;16.10;70.10;;;;;;10258605;28;20197;-55
2023/04/15 17:50:45;;;;;;;12.65;4.05;;;16.00;70.10;;;;;;10290590;28;20026;-55
2023/04/15 17:55:46;;;;;;;21.35;4.25;;;16.00;69.80;;;;;;10282816;28;20101;-56
2023/04/15 18:00:47;;;;;;;9.38;3.08;;;16.00;69.90;;;;;;10283397;28;20073;-56
2023/04/15 18:05:47;;;;;;;15.70;2.78;;;16.00;70.10;;;;;;10266286;28;20019;-55
2023/04/15 18:10:48;;;;;;;14.00;3.30;;;16.00;70.10;;;;;;10283000;28;20030;-56
2023/04/15 18:15:50;;;;;;;13.82;4.03;;;16.00;70.10;;;;;;10282391;28;20113;-54
2023/04/15 18:20:50;;;;;;;12.00;2.97;;;16.00;69.80;;;;;;10282793;28;20038;-55
2023/04/15 18:25:51;;;;;;;12.38;2.50;;;16.00;69.90;;;;;;10281506;28;20493;-55
2023/04/15 18:30:52;;;;;;;14.27;2.70;;;16.00;70.30;;;;;;10276668;28;20037;-54
2023/04/15 18:35:54;;;;;;;8.75;2.30;;;16.10;70.10;;;;;;10282177;28;20700;-55
2023/04/15 18:40:55;;;;;;;12.00;3.05;;;16.10;70.20;;;;;;10265304;28;20482;-57
2023/04/15 18:45:55;;;;;;;11.93;2.58;;;16.10;70.30;;;;;;10282366;28;20122;-53
2023/04/15 18:50:57;;;;;;;8.63;2.42;;;16.10;70.40;;;;;;10280791;28;20628;-55
2023/04/15 18:56:00;;;;;;;5.72;1.70;;;16.10;70.40;;;;;;10265886;28;20023;-55
2023/04/15 19:01:01;;;;;;;15.25;3.45;;;16.10;70.40;;;;;;10282279;28;20098;-55
2023/04/15 19:06:01;;;;;;;14.18;2.50;;;16.10;70.30;;;;;;10279860;28;20142;-56
2023/04/15 19:11:02;;;;;;;12.90;2.50;;;16.10;69.70;;;;;;10289965;28;20065;-54
2023/04/15 19:16:03;;;;;;;8.63;2.03;;;16.00;70.00;;;;;;10290051;28;20027;-56
2023/04/15 19:21:04;;;;;;;10.65;2.13;;;16.00;70.30;;;;;;10287322;28;20046;-53
2023/04/15 19:26:07;;;;;;;10.88;2.03;;;15.90;71.00;;;;;;10288573;28;20014;-55
2023/04/15 19:31:07;;;;;;;6.43;2.13;;;16.00;70.10;;;;;;10289273;28;20019;-56
2023/04/15 19:36:08;;;;;;;7.53;2.60;;;15.90;69.90;;;;;;10288619;28;20046;-54
2023/04/15 19:41:09;;;;;;;5.15;1.95;;;15.90;70.00;;;;;;10269633;28;20018;-55
2023/04/15 19:46:11;;;;;;;5.70;2.08;;;15.80;69.90;;;;;;10269234;28;20114;-55
2023/04/15 19:51:12;;;;;;;4.18;1.27;;;15.80;69.80;;;;;;10287025;28;20076;-55
2023/04/15 19:56:13;;;;;;;3.30;1.55;;;15.80;69.80;;;;;;10286919;28;20031;-56
2023/04/15 20:01:14;;;;;;;5.47;1.38;;;15.70;69.60;;;;;;10287651;28;20568;-54
2023/04/15 20:06:14;;;;;;;2.80;1.20;;;15.80;69.60;;;;;;10288578;28;20093;-54
2023/04/15 20:11:15;;;;;;;4.80;2.35;;;15.70;69.60;;;;;;10288396;28;20492;-55
2023/04/15 20:16:16;;;;;;;4.88;1.60;;;15.70;69.50;;;;;;10288320;28;20816;-54
2023/04/15 20:21:16;;;;;;;2.85;1.40;;;15.70;69.50;;;;;;10287058;28;20093;-51
2023/04/15 20:26:18;;;;;;;4.55;1.35;;;15.70;70.00;;;;;;10287797;28;20130;-54
2023/04/15 20:31:20;;;;;;;4.40;1.00;;;15.60;69.40;;;;;;10287788;28;20022;-55
2023/04/15 20:36:21;;;;;;;2.97;1.05;;;15.60;69.30;;;;;;10270056;28;20127;-55
2023/04/15 20:41:22;;;;;;;2.85;1.10;;;15.60;69.20;;;;;;10287432;28;20041;-56
2023/04/15 20:46:22;;;;;;;5.32;1.15;;;15.60;69.20;;;;;;10287121;28;20043;-55
2023/04/15 20:51:23;;;;;;;4.57;1.20;;;15.60;69.20;;;;;;10286886;28;20114;-53
2023/04/15 20:56:24;;;;;;;5.13;2.03;;;15.60;69.10;;;;;;10286667;28;20686;-56
2023/04/15 21:01:24;;;;;;;2.92;1.10;;;15.60;69.10;;;;;;10286433;28;20117;-55
2023/04/15 21:06:26;;;;;;;4.47;1.38;;;15.60;69.10;;;;;;10269042;28;20017;-54
2023/04/15 21:11:27;;;;;;;5.07;1.58;;;15.60;69.10;;;;;;10286327;28;20542;-56
2023/04/15 21:16:27;;;;;;;2.50;0.80;;;15.60;69.00;;;;;;10285951;28;20027;-55
2023/04/15 21:21:28;;;;;;;5.32;0.98;;;15.50;69.00;;;;;;10285396;28;20383;-54
2023/04/15 21:26:29;;;;;;;3.78;1.05;;;15.50;69.00;;;;;;10268677;28;20134;-55
2023/04/15 21:31:30;;;;;;;3.35;0.85;;;15.50;69.00;;;;;;10284898;28;20035;-54
2023/04/15 21:36:31;;;;;;;3.92;2.05;;;15.50;68.90;;;;;;10288845;28;20105;-56
2023/04/15 21:41:31;;;;;;;2.40;1.00;;;15.50;68.90;;;;;;10284871;28;20051;-54
2023/04/15 21:46:32;;;;;;;1.95;1.08;;;15.50;68.90;;;;;;10284673;28;20047;-54
2023/04/15 21:51:33;;;;;;;2.22;0.90;;;15.50;68.90;;;;;;10284873;28;20109;-52
2023/04/15 21:56:34;;;;;;;2.85;0.88;;;15.50;68.90;;;;;;10284935;28;20019;-54
2023/04/15 22:01:34;;;;;;;4.35;1.10;;;15.50;68.90;;;;;;10284044;28;20085;-56
2023/04/15 22:06:35;;;;;;;5.47;2.63;;;15.50;68.80;;;;;;10284275;28;20054;-54
2023/04/15 22:11:36;;;;;;;4.47;1.60;;;15.50;68.80;;;;;;10283896;28;20030;-55
2023/04/15 22:16:37;;;;;;;1.48;0.90;;;15.50;68.80;;;;;;10283947;28;20038;-55
2023/04/15 22:21:37;;;;;;;1.70;0.93;;;15.50;68.70;;;;;;10283823;28;20211;-54
2023/04/15 22:26:38;;;;;;;2.00;0.90;;;15.40;68.60;;;;;;10283557;28;20488;-55
2023/04/15 22:31:39;;;;;;;2.15;1.05;;;15.40;69.20;;;;;;10283955;28;20027;-52
2023/04/15 22:36:39;;;;;;;1.73;0.82;;;15.40;68.70;;;;;;10283354;28;20114;-54
2023/04/15 22:41:40;;;;;;;1.77;0.70;;;15.40;68.60;;;;;;10267340;28;20049;-56
2023/04/15 22:46:41;;;;;;;2.25;1.00;;;15.40;68.60;;;;;;10291834;28;20078;-55
2023/04/15 22:51:42;;;;;;;2.40;0.77;;;15.40;68.70;;;;;;10273932;28;20081;-56
2023/04/15 22:56:43;;;;;;;2.05;0.90;;;15.40;68.60;;;;;;10274130;28;20030;-55
2023/04/15 23:01:43;;;;;;;3.40;1.63;;;15.40;68.70;;;;;;10291090;28;20059;-55
2023/04/15 23:06:44;;;;;;;1.17;0.77;;;15.40;68.60;;;;;;10290889;28;20023;-55
2023/04/15 23:11:46;;;;;;;3.15;0.80;;;15.40;68.60;;;;;;10291035;28;20058;-55
2023/04/15 23:16:47;;;;;;;3.30;0.95;;;15.30;68.50;;;;;;10273341;28;20101;-51
2023/04/15 23:21:48;;;;;;;4.55;1.15;;;15.30;68.50;;;;;;10290153;28;20111;-54
2023/04/15 23:26:48;;;;;;;3.40;1.35;;;15.30;68.60;;;;;;10290194;28;20011;-53
2023/04/15 23:31:49;;;;;;;3.45;1.40;;;15.40;68.60;;;;;;10290203;28;20055;-56
2023/04/15 23:36:50;;;;;;;4.45;0.95;;;15.30;68.50;;;;;;10289134;28;20102;-55
2023/04/15 23:41:50;;;;;;;2.78;0.93;;;15.30;68.50;;;;;;10289418;28;20045;-56
2023/04/15 23:46:51;;;;;;;1.75;0.68;;;15.30;68.50;;;;;;10271887;28;20050;-55
2023/04/15 23:51:52;;;;;;;2.33;0.88;;;15.30;68.50;;;;;;10271519;28;20122;-55
2023/04/15 23:56:52;;;;;;;1.63;0.70;;;15.30;68.50;;;;;;10288650;28;20097;-55
